Terminal Aerodrome Forecast
Issued by NWS

Home | Current Version | Previous Version | Graphics & Text | Print | Product List | Glossary On
Versions: 1 2 3 4 5 6 7 8 9 10 11 12 13 14 15 16
212
FTUS43 KBIS 210524
TAFDIK
TAF
KDIK 210524Z 2106/2206 15013G21KT P6SM FEW250
     FM211000 18011KT P6SM FEW200
     FM211300 24011KT P6SM FEW200
     FM211400 27013G21KT P6SM FEW250
     FM211700 30021G31KT P6SM SKC
     FM220300 27010KT P6SM FEW140=

USA.gov is the U.S. government's official web portal to all federal, state and local government web resources and services.